Welcome to Northern Hawkes Bay. New Zealand.
PWS Header
      nz Flag



Hit Counter


W3C Valid W3C Valid logo


    Wairoa

Select any of the Stations below to visit their websites.










Historic Data from Weather Underground
Select the location of interest below. Wairoa is the default. Please have patience, this Data is slow to load in.
Northern Hawkes Bay Historical Data
Daily Summary for March 3, 2017 Units:  English    Metric   Both
« Previous Day
Next Day »
Daily Weekly Monthly Yearly Custom
  High: Low: Average:
Temperature: 84.7 °F 60.1 °F 71.4 °F
Dew Point: 62.4 °F 45.9 °F 55.9 °F
Humidity: 96% 28% 63%
Wind Speed: 14.5mph 0mph 4.3mph
Wind Gust: 22.1mph - -
Wind- - WNW
Pressure: 30.2 in 29.9 in -
Precipitation: 0 in    
Historical Graphs
 
 
Tabular Data for March 3, 2017
Time Temperature Dew Point Pressure Wind Wind Speed Wind Gust Humidity Rainfall Rate (Hourly) solar
00:01 64.4 °F 61.2 °F 30.2 in NNW 2.2 mph 4.5 mph 89% 0 in 0 W/m2
00:06 64.4 °F 61.2 °F 30.2 in North 2.2 mph 4.5 mph 89% 0 in 0 W/m2
00:11 64.2 °F 60.6 °F 30.2 in NNW 3.1 mph 4.5 mph 88% 0 in 0 W/m2
00:16 64.2 °F 60.6 °F 30.2 in NNW 0.7 mph 4.5 mph 88% 0 in 0 W/m2
00:21 64.2 °F 61 °F 30.2 in NNW 1.6 mph 3.8 mph 89% 0 in 0 W/m2
00:26 64.2 °F 61 °F 30.2 in Calm   3.8 mph 89% 0 in 0 W/m2
00:31 64.2 °F 61 °F 30.2 in North 2.2 mph 3.8 mph 89% 0 in 0 W/m2
00:36 64 °F 60.8 °F 30.2 in North 1.6 mph 3.8 mph 89% 0 in 0 W/m2
00:41 64 °F 60.8 °F 30.2 in North 0.7 mph 4.5 mph 89% 0 in 0 W/m2
00:46 64 °F 60.8 °F 30.2 in NNW 1.6 mph 4.5 mph 89% 0 in 0 W/m2
00:51 64 °F 61.2 °F 30.2 in NNW 0.7 mph 3.8 mph 90% 0 in 0 W/m2
00:56 63.9 °F 61 °F 30.2 in NNW 1.6 mph 3.8 mph 90% 0 in 0 W/m2
01:01 63.9 °F 61 °F 30.2 in Calm   3.8 mph 90% 0 in 0 W/m2
01:06 63.9 °F 61 °F 30.2 in NNW 0.7 mph 2.2 mph 90% 0 in 0 W/m2
01:11 63.9 °F 61 °F 30.2 in North 2.2 mph 3.8 mph 90% 0 in 0 W/m2
01:16 63.9 °F 61 °F 30.2 in North 2.2 mph 3.8 mph 90% 0 in 0 W/m2
01:21 63.9 °F 61 °F 30.2 in North 0.7 mph 3.8 mph 90% 0 in 0 W/m2
01:26 63.9 °F 61 °F 30.2 in NNW 1.6 mph 3.8 mph 90% 0 in 0 W/m2
01:31 63.9 °F 61 °F 30.2 in NNW 1.6 mph 3.8 mph 90% 0 in 0 W/m2
01:36 63.9 °F 61 °F 30.2 in North 2.2 mph 4.5 mph 90% 0 in 0 W/m2
01:41 63.9 °F 61 °F 30.2 in NNW 1.6 mph 4.5 mph 90% 0 in 0 W/m2
01:46 63.9 °F 61 °F 30.2 in NNW 0.7 mph 4.5 mph 90% 0 in 0 W/m2
01:51 63.9 °F 60.6 °F 30.2 in NNW 2.2 mph 4.5 mph 89% 0 in 0 W/m2
01:56 63.7 °F 60.4 °F 30.2 in NNW 3.1 mph 5.4 mph 89% 0 in 0 W/m2
02:01 63.7 °F 60.4 °F 30.2 in NNW 2.2 mph 5.4 mph 89% 0 in 0 W/m2
02:06 63.5 °F 60.3 °F 30.2 in NNW 1.6 mph 5.4 mph 89% 0 in 0 W/m2
02:11 63.5 °F 60.3 °F 30.2 in NNW 1.6 mph 4.5 mph 89% 0 in 0 W/m2
02:16 63.5 °F 60.3 °F 30.2 in NNW 2.2 mph 4.5 mph 89% 0 in 0 W/m2
02:21 63.5 °F 60.3 °F 30.2 in NNW 1.6 mph 4.5 mph 89% 0 in 0 W/m2
02:26 63.5 °F 60.3 °F 30.2 in NNW 0.7 mph 4.5 mph 89% 0 in 0 W/m2
02:31 63.5 °F 60.3 °F 30.2 in North 2.2 mph 3.8 mph 89% 0 in 0 W/m2
02:36 63.1 °F 59.9 °F 30.2 in North 0.7 mph 3.8 mph 89% 0 in 0 W/m2
02:41 63.1 °F 59.9 °F 30.2 in Calm   3.8 mph 89% 0 in 0 W/m2
02:46 63.1 °F 59.9 °F 30.2 in North 1.6 mph 3.1 mph 89% 0 in 0 W/m2
02:51 63.1 °F 59.9 °F 30.2 in North 0.7 mph 3.1 mph 89% 0 in 0 W/m2
02:56 63.1 °F 59.9 °F 30.2 in North 1.6 mph 3.1 mph 89% 0 in 0 W/m2
03:01 63.1 °F 59.9 °F 30.2 in North 2.2 mph 3.8 mph 89% 0 in 0 W/m2
03:06 63.1 °F 59.5 °F 30.2 in North 1.6 mph 3.8 mph 88% 0 in 0 W/m2
03:11 63.1 °F 59.5 °F 30.2 in North 2.2 mph 3.8 mph 88% 0 in 0 W/m2
03:16 63.1 °F 59.5 °F 30.2 in North 1.6 mph 3.8 mph 88% 0 in 0 W/m2
03:21 63.1 °F 59.5 °F 30.2 in North 1.6 mph 4.5 mph 88% 0 in 0 W/m2
03:26 63.1 °F 59.5 °F 30.2 in North 1.6 mph 4.5 mph 88% 0 in 0 W/m2
03:31 63.1 °F 59.5 °F 30.2 in North 1.6 mph 3.8 mph 88% 0 in 0 W/m2
03:36 63.1 °F 59.5 °F 30.2 in Calm   3.8 mph 88% 0 in 0 W/m2
03:41 63.1 °F 59.5 °F 30.2 in NNW 2.2 mph 3.8 mph 88% 0 in 0 W/m2
03:46 63.1 °F 59.5 °F 30.2 in Calm   3.1 mph 88% 0 in 0 W/m2
03:51 63.1 °F 59.9 °F 30.2 in North 1.6 mph 3.8 mph 89% 0 in 0 W/m2
03:56 63.1 °F 59.9 °F 30.2 in NNW 1.6 mph 3.8 mph 89% 0 in 0 W/m2
04:01 63.1 °F 59.9 °F 30.2 in Calm   3.1 mph 89% 0 in 0 W/m2
04:06 63.1 °F 59.9 °F 30.2 in North 0.7 mph 2.2 mph 89% 0 in 0 W/m2
04:11 63 °F 59.7 °F 30.2 in Calm   2.2 mph 89% 0 in 0 W/m2
04:16 63 °F 59.7 °F 30.2 in Calm   3.1 mph 89% 0 in 0 W/m2
04:21 63 °F 59.7 °F 30.2 in NW 0.7 mph 3.1 mph 89% 0 in 0 W/m2
04:26 62.8 °F 59.5 °F 30.2 in Calm   3.1 mph 89% 0 in 0 W/m2
04:31 62.6 °F 59.5 °F 30.2 in Calm   1.6 mph 90% 0 in 0 W/m2
04:36 62.4 °F 59.7 °F 30.2 in Calm   2.2 mph 91% 0 in 0 W/m2
04:41 62.2 °F 59.5 °F 30.2 in NW 0.7 mph 2.2 mph 91% 0 in 0 W/m2
04:46 62.1 °F 59.7 °F 30.2 in NNW 1.6 mph 3.1 mph 92% 0 in 0 W/m2
04:51 62.1 °F 59.7 °F 30.2 in NNW 0.7 mph 3.1 mph 92% 0 in 0 W/m2
04:56 61.9 °F 59.5 °F 30.2 in NNW 0.7 mph 2.2 mph 92% 0 in 0 W/m2
05:01 62.1 °F 60.1 °F 30.2 in Calm   2.2 mph 93% 0 in 0 W/m2
05:06 62.1 °F 60.1 °F 30.2 in Calm   2.2 mph 93% 0 in 0 W/m2
05:11 62.1 °F 60.1 °F 30.2 in Calm   2.2 mph 93% 0 in 0 W/m2
05:16 62.1 °F 60.1 °F 30.2 in Calm     93% 0 in 0 W/m2
05:21 62.1 °F 60.1 °F 30.2 in Calm     93% 0 in 0 W/m2
05:26 62.1 °F 60.1 °F 30.2 in North 1.6 mph 2.2 mph 93% 0 in 0 W/m2
05:42 62.1 °F 60.1 °F 30.2 in Calm   2.2 mph 93% 0 in 0 W/m2
05:47 61.9 °F 59.9 °F 30.2 in Calm     93% 0 in 0 W/m2
05:52 61.9 °F 59.9 °F 30.2 in Calm     93% 0 in 0 W/m2
05:57 61.9 °F 59.9 °F 30.2 in Calm   1.6 mph 93% 0 in 0 W/m2
06:02 61.9 °F 59.9 °F 30.2 in Calm   1.6 mph 93% 0 in 0 W/m2
06:07 61.9 °F 59.9 °F 30.2 in Calm     93% 0 in 0 W/m2
06:12 61.9 °F 59.9 °F 30.2 in Calm     93% 0 in 0 W/m2
06:17 61.9 °F 59.9 °F 30.2 in NNW 3.1 mph 4.5 mph 93% 0 in 0 W/m2
06:22 61.9 °F 59.9 °F 30.2 in NNW 2.2 mph 4.5 mph 93% 0 in 0 W/m2
06:27 61.9 °F 59.9 °F 30.2 in NW 2.2 mph 4.5 mph 93% 0 in 0 W/m2
06:32 61.7 °F 59.7 °F 30.2 in NW 3.1 mph 3.8 mph 93% 0 in 0 W/m2
06:37 61.7 °F 59.7 °F 30.2 in NNW 0.7 mph 3.8 mph 93% 0 in 0 W/m2
06:42 61.3 °F 59.4 °F 30.2 in NW 0.7 mph 3.8 mph 93% 0 in 0 W/m2
06:47 61.2 °F 59.2 °F 30.2 in Calm   3.1 mph 93% 0 in 0 W/m2
06:52 61 °F 59 °F 30.2 in Calm   0.7 mph 93% 0 in 1 W/m2
06:57 60.8 °F 58.8 °F 30.2 in Calm     93% 0 in 4 W/m2
07:02 60.4 °F 58.6 °F 30.2 in Calm     94% 0 in 6 W/m2
07:07 60.4 °F 58.6 °F 30.2 in Calm     94% 0 in 9 W/m2
07:12 60.1 °F 58.6 °F 30.2 in NW 1.6 mph 3.8 mph 95% 0 in 12 W/m2
07:17 60.1 °F 58.6 °F 30.2 in NNW 0.7 mph 3.8 mph 95% 0 in 17 W/m2
07:34 61 °F 59.7 °F 30.2 in Calm   1.6 mph 96% 0 in 75 W/m2
07:39 62.2 °F 61.2 °F 30.2 in Calm   1.6 mph 96% 0 in 99 W/m2
07:44 62.8 °F 61.3 °F 30.2 in Calm   2.2 mph 95% 0 in 116 W/m2
07:49 63.5 °F 62.1 °F 30.2 in North 0.7 mph 2.2 mph 95% 0 in 127 W/m2
07:54 64.2 °F 62.2 °F 30.2 in Calm   2.2 mph 93% 0 in 137 W/m2
07:59 65.5 °F 62.4 °F 30.2 in North 0.7 mph 2.2 mph 90% 0 in 147 W/m2
08:04 65.7 °F 61.2 °F 30.2 in North 0.7 mph 5.4 mph 85% 0 in 155 W/m2
08:09 65.5 °F 60.3 °F 30.2 in North 0.7 mph 5.4 mph 83% 0 in 162 W/m2
08:14 66 °F 60.6 °F 30.2 in NNW 0.7 mph 3.8 mph 83% 0 in 171 W/m2
08:19 66.6 °F 60.3 °F 30.2 in Calm   3.1 mph 80% 0 in 178 W/m2
08:24 67.1 °F 60.1 °F 30.2 in Calm   3.1 mph 78% 0 in 190 W/m2
08:29 67.8 °F 61.2 °F 30.2 in Calm   3.1 mph 79% 0 in 198 W/m2
08:34 67.6 °F 60.3 °F 30.2 in NNW 2.2 mph 3.8 mph 77% 0 in 205 W/m2
08:39 67.3 °F 59.7 °F 30.2 in NNW 1.6 mph 4.5 mph 77% 0 in 214 W/m2
08:44 68 °F 60.4 °F 30.2 in NNW 1.6 mph 4.5 mph 77% 0 in 227 W/m2
08:49 68.4 °F 60.3 °F 30.2 in NNW 0.7 mph 4.5 mph 75% 0 in 240 W/m2
08:54 69.3 °F 61 °F 30.2 in NNW 0.7 mph 4.5 mph 75% 0 in 252 W/m2
08:59 70.2 °F 60.3 °F 30.1 in North 2.2 mph 5.4 mph 71% 0 in 267 W/m2
09:04 69.8 °F 60.8 °F 30.2 in Calm   5.4 mph 73% 0 in 280 W/m2
09:09 70.9 °F 61.3 °F 30.1 in NW 1.6 mph 5.4 mph 72% 0 in 293 W/m2
09:14 70.2 °F 59.9 °F 30.1 in NW 3.8 mph 5.4 mph 70% 0 in 304 W/m2
09:19 69.6 °F 60.3 °F 30.1 in NNW 3.1 mph 5.4 mph 72% 0 in 315 W/m2
09:24 70.3 °F 61 °F 30.1 in North 1.6 mph 5.4 mph 72% 0 in 328 W/m2
09:29 71.4 °F 61.2 °F 30.1 in Calm   5.4 mph 70% 0 in 340 W/m2
09:34 72.3 °F 60.4 °F 30.1 in North 3.1 mph 4.5 mph 66% 0 in 354 W/m2
09:40 72.3 °F 60.4 °F 30.1 in NNW 3.1 mph 5.4 mph 66% 0 in 363 W/m2
09:45 71.6 °F 59.7 °F 30.1 in NNW 3.1 mph 6 mph 66% 0 in 378 W/m2
09:50 71.4 °F 60.3 °F 30.1 in NNW 3.1 mph 6 mph 68% 0 in 391 W/m2
09:55 72.5 °F 60.1 °F 30.1 in North 3.8 mph 7.6 mph 65% 0 in 404 W/m2
10:00 72.7 °F 59.7 °F 30.1 in North 3.1 mph 7.6 mph 64% 0 in 418 W/m2
10:05 73.2 °F 60.8 °F 30.1 in NNW 1.6 mph 6.9 mph 65% 0 in 433 W/m2
10:10 74.5 °F 60.6 °F 30.1 in NNW 3.1 mph 9.2 mph 62% 0 in 447 W/m2
10:15 74.3 °F 60.4 °F 30.1 in North 5.4 mph 9.2 mph 62% 0 in 459 W/m2
10:20 73.9 °F 59.7 °F 30.1 in North 5.4 mph 7.6 mph 61% 0 in 469 W/m2
10:25 74.1 °F 60.3 °F 30.1 in North 5.4 mph 8.3 mph 62% 0 in 480 W/m2
10:30 74.8 °F 60.1 °F 30.1 in North 6.9 mph 9.2 mph 60% 0 in 103 W/m2
10:35 74.7 °F 59.9 °F 30.1 in North 3.1 mph 9.2 mph 60% 0 in 221 W/m2
10:40 75 °F 59.7 °F 30.1 in North 5.4 mph 9.2 mph 59% 0 in 515 W/m2
10:45 75.4 °F 60.1 °F 30.1 in North 4.5 mph 9.2 mph 59% 0 in 532 W/m2
10:50 75.9 °F 60.1 °F 30.1 in North 5.4 mph 7.6 mph 58% 0 in 113 W/m2
10:55 75.4 °F 58.6 °F 30.1 in North 5.4 mph 9.2 mph 56% 0 in 559 W/m2
11:00 75.7 °F 59.5 °F 30.1 in North 3.1 mph 9.2 mph 57% 0 in 108 W/m2
11:05 75.4 °F 60.1 °F 30.1 in North 5.4 mph 10.7 mph 59% 0 in 141 W/m2
11:10 75.6 °F 60.3 °F 30.1 in NNW 3.1 mph 10.7 mph 59% 0 in 130 W/m2
11:15 76.1 °F 59.7 °F 30.1 in NW 6.9 mph 9.8 mph 57% 0 in 140 W/m2
11:34 77 °F 60.1 °F 30.1 in NNW 2.2 mph 6.9 mph 56% 0 in 796 W/m2
11:39 76.3 °F 59.5 °F 30.1 in North 3.8 mph 9.8 mph 56% 0 in 752 W/m2
11:44 76.1 °F 59.7 °F 30.1 in North 5.4 mph 9.8 mph 57% 0 in 195 W/m2
11:49 75 °F 59.4 °F 30.1 in NNW 3.8 mph 9.8 mph 58% 0 in 204 W/m2
11:54 75.4 °F 60.1 °F 30.1 in NW 6.9 mph 9.8 mph 59% 0 in 749 W/m2
11:59 76.1 °F 58.8 °F 30.1 in NW 3.8 mph 11.4 mph 55% 0 in 752 W/m2
12:04 77.2 °F 55.9 °F 30.1 in North 3.1 mph 11.4 mph 48% 0 in 759 W/m2
12:10 77.9 °F 55.6 °F 30.1 in NNE 7.6 mph 10.7 mph 46% 0 in 775 W/m2
12:15 77.5 °F 54.7 °F 30.1 in NNW 6 mph 13.6 mph 45% 0 in 793 W/m2
12:20 77.7 °F 55.2 °F 30.1 in NNW 6 mph 14.5 mph 46% 0 in 801 W/m2
12:25 78.3 °F 55.2 °F 30.1 in NNW 3.8 mph 14.5 mph 45% 0 in 822 W/m2
12:30 78.6 °F 54.9 °F 30.1 in NNW 8.3 mph 13 mph 44% 0 in 834 W/m2
12:35 78.4 °F 54.9 °F 30.1 in NW 9.8 mph 14.5 mph 44% 0 in 846 W/m2
12:40 78.1 °F 53.8 °F 30.1 in NW 8.3 mph 16.8 mph 43% 0 in 861 W/m2
12:45 78.4 °F 54.9 °F 30.1 in NW 6.9 mph 16.8 mph 44% 0 in 872 W/m2
12:50 78.6 °F 54.3 °F 30.1 in NW 6.9 mph 15.2 mph 43% 0 in 889 W/m2
12:55 78.8 °F 53.8 °F 30.1 in NW 9.2 mph 15.2 mph 42% 0 in 887 W/m2
13:00 79.3 °F 54.3 °F 30.1 in NNW 9.2 mph 16.8 mph 42% 0 in 892 W/m2
13:05 79.2 °F 54.1 °F 30 in North 13 mph 19.7 mph 42% 0 in 898 W/m2
13:10 78.8 °F 53.8 °F 30 in NNW 3.8 mph 19.7 mph 42% 0 in 903 W/m2
13:15 79.3 °F 53.1 °F 30 in NNW 2.2 mph 16.8 mph 40% 0 in 910 W/m2
13:20 79.7 °F 53.2 °F 30 in NNW 0.7 mph 11.4 mph 40% 0 in 918 W/m2
13:25 79.7 °F 52 °F 30 in NNW 0.7 mph 11.4 mph 38% 0 in 918 W/m2
13:30 80.4 °F 54 °F 30 in NNW 5.4 mph 12.1 mph 40% 0 in 925 W/m2
13:35 80.2 °F 53.8 °F 30 in NNW 6 mph 12.1 mph 40% 0 in 921 W/m2
13:40 80.4 °F 54.7 °F 30 in NNW 7.6 mph 12.1 mph 41% 0 in 913 W/m2
13:45 80.4 °F 52.5 °F 30 in NNW 5.4 mph 11.4 mph 38% 0 in 909 W/m2
13:50 80.6 °F 52.7 °F 30 in NNW 4.5 mph 13 mph 38% 0 in 904 W/m2
13:55 80.8 °F 53.6 °F 30 in NNW 0.7 mph 13 mph 39% 0 in 907 W/m2
13:59 81.3 °F 54 °F 30 in North 3.8 mph 10.7 mph 39% 0 in 906 W/m2
14:04 81.1 °F 53.2 °F 30 in NNW 2.2 mph 11.4 mph 38% 0 in 885 W/m2
14:09 81.3 °F 53.2 °F 30 in NNW 1.6 mph 13 mph 38% 0 in 880 W/m2
14:14 81.9 °F 51.6 °F 30 in NNW 5.4 mph 13 mph 35% 0 in 866 W/m2
14:19 81.7 °F 52.2 °F 30 in NNW 3.1 mph 13 mph 36% 0 in 866 W/m2
14:24 81.9 °F 51.6 °F 30 in NNW 12.1 mph 15.2 mph 35% 0 in 817 W/m2
14:29 81.5 °F 51.3 °F 30 in North 9.2 mph 15.2 mph 35% 0 in 577 W/m2
14:34 81.3 °F 52 °F 30 in NNW 3.8 mph 15.2 mph 36% 0 in 753 W/m2
14:39 82 °F 50.9 °F 30 in NNW 3.1 mph 14.5 mph 34% 0 in 814 W/m2
14:44 81.9 °F 50.7 °F 30 in North 5.4 mph 14.5 mph 34% 0 in 537 W/m2
14:49 82.4 °F 53.6 °F 30 in NNW 2.2 mph 14.5 mph 37% 0 in 790 W/m2
14:55 83.3 °F 53.6 °F 30 in NW 3.8 mph 13.6 mph 36% 0 in 777 W/m2
15:00 83.1 °F 53.4 °F 30 in NW 2.2 mph 13.6 mph 36% 0 in 757 W/m2
15:05 82.9 °F 53.2 °F 30 in NW 5.4 mph 12.1 mph 36% 0 in 749 W/m2
15:10 83.1 °F 53.4 °F 30 in NW 4.5 mph 12.1 mph 36% 0 in 650 W/m2
15:15 83.1 °F 52.7 °F 30 in NW 5.4 mph 13 mph 35% 0 in 718 W/m2
15:20 83.1 °F 52.7 °F 30 in NW 6 mph 17.4 mph 35% 0 in 599 W/m2
15:25 83.3 °F 52.9 °F 30 in NNW 9.8 mph 17.4 mph 35% 0 in 648 W/m2
15:30 83.8 °F 54.1 °F 30 in NNW 6 mph 15.2 mph 36% 0 in 640 W/m2
15:35 83.8 °F 53.2 °F 30 in NW 9.2 mph 14.5 mph 35% 0 in 604 W/m2
15:40 83.5 °F 53.8 °F 30 in NW 8.3 mph 13.6 mph 36% 0 in 604 W/m2
15:45 83.1 °F 52.7 °F 30 in NNW 7.6 mph 15.9 mph 35% 0 in 560 W/m2
15:50 83.8 °F 54.1 °F 30 in NNW 6 mph 15.9 mph 36% 0 in 605 W/m2
15:55 83.8 °F 53.2 °F 30 in NNW 8.3 mph 11.4 mph 35% 0 in 550 W/m2
16:00 84 °F 53.4 °F 30 in NW 7.6 mph 11.4 mph 35% 0 in 471 W/m2
16:05 84.4 °F 53.1 °F 30 in NNW 9.2 mph 11.4 mph 34% 0 in 523 W/m2
16:10 83.8 °F 53.2 °F 30 in NNW 3.8 mph 15.9 mph 35% 0 in 436 W/m2
16:15 84.2 °F 52.9 °F 30 in NW 6.9 mph 15.9 mph 34% 0 in 468 W/m2
16:20 84.6 °F 52.3 °F 29.9 in NNW 4.5 mph 13 mph 33% 0 in 139 W/m2
16:25 84.2 °F 53.6 °F 29.9 in NNW 9.2 mph 17.4 mph 35% 0 in 481 W/m2
16:30 84.4 °F 53.8 °F 29.9 in NNW 8.3 mph 17.4 mph 35% 0 in 471 W/m2
16:35 84.7 °F 49.8 °F 29.9 in NNW 6.9 mph 13 mph 30% 0 in 357 W/m2
16:40 84.2 °F 53.6 °F 29.9 in NNW 14.5 mph 16.8 mph 35% 0 in 326 W/m2
16:45 83.5 °F 53.1 °F 29.9 in NNW 10.7 mph 17.4 mph 35% 0 in 395 W/m2
16:50 83.3 °F 47.8 °F 29.9 in NW 5.4 mph 21.3 mph 29% 0 in 394 W/m2
16:55 84.2 °F 49.5 °F 29.9 in NW 8.3 mph 21.3 mph 30% 0 in 425 W/m2
17:00 84 °F 49.3 °F 29.9 in NW 3.8 mph 13 mph 30% 0 in 410 W/m2
17:05 83.8 °F 49.1 °F 29.9 in NW 6.9 mph 15.9 mph 30% 0 in 394 W/m2
17:10 83.8 °F 50 °F 29.9 in NW 8.3 mph 15.9 mph 31% 0 in 372 W/m2
17:15 83.5 °F 48.7 °F 29.9 in NW 6 mph 15.2 mph 30% 0 in 366 W/m2
17:20 83.8 °F 50 °F 29.9 in NW 7.6 mph 13.6 mph 31% 0 in 348 W/m2
17:25 83.5 °F 48.7 °F 29.9 in NW 10.7 mph 15.2 mph 30% 0 in 330 W/m2
17:30 82.8 °F 47.3 °F 29.9 in NW 9.2 mph 15.9 mph 29% 0 in 311 W/m2
17:35 82.6 °F 48.9 °F 29.9 in NW 8.3 mph 17.4 mph 31% 0 in 310 W/m2
17:40 82.2 °F 45.9 °F 29.9 in NW 12.1 mph 22.1 mph 28% 0 in 283 W/m2
17:41 82 °F 45.9 °F 29.9 in NW 6.9 mph 22.1 mph 28% 0 in 280 W/m2
17:46 81.7 °F 46.4 °F 29.9 in NNW 9.8 mph 22.1 mph 29% 0 in 269 W/m2
17:51 81.5 °F 46.2 °F 29.9 in NW 7.6 mph 19 mph 29% 0 in 244 W/m2
17:56 81.5 °F 47.1 °F 29.9 in NW 9.2 mph 18.3 mph 30% 0 in 238 W/m2
18:01 81.5 °F 47.1 °F 29.9 in NW 6 mph 14.5 mph 30% 0 in 225 W/m2
18:06 81.3 °F 47.8 °F 29.9 in NW 4.5 mph 14.5 mph 31% 0 in 207 W/m2
18:11 81.3 °F 47.8 °F 29.9 in NW 8.3 mph 16.8 mph 31% 0 in 185 W/m2
18:16 80.4 °F 47.8 °F 29.9 in NW 7.6 mph 16.8 mph 32% 0 in 110 W/m2
18:21 78.8 °F 48 °F 29.9 in NW 6.9 mph 15.9 mph 34% 0 in 51 W/m2
18:26 78.4 °F 50 °F 29.9 in NW 6.9 mph 17.4 mph 37% 0 in 69 W/m2
18:31 77.9 °F 50.4 °F 29.9 in NW 10.7 mph 17.4 mph 38% 0 in 46 W/m2
18:36 77.9 °F 50.4 °F 29.9 in WNW 9.8 mph 15.9 mph 38% 0 in 68 W/m2
18:41 77.5 °F 50.7 °F 29.9 in WNW 7.6 mph 15.9 mph 39% 0 in 48 W/m2
18:46 77.5 °F 51.3 °F 29.9 in NW 9.8 mph 13.6 mph 40% 0 in 42 W/m2
18:51 77.2 °F 52.3 °F 29.9 in NW 6.9 mph 13 mph 42% 0 in 63 W/m2
18:56 77.4 °F 52.5 °F 29.9 in NW 8.3 mph 15.2 mph 42% 0 in 54 W/m2
19:01 76.6 °F 52.5 °F 29.9 in NW 13 mph 19 mph 43% 0 in 42 W/m2
19:06 76.5 °F 53.1 °F 29.9 in NW 6.9 mph 19 mph 44% 0 in 49 W/m2
19:11 76.3 °F 52.9 °F 29.9 in NNW 9.2 mph 16.8 mph 44% 0 in 43 W/m2
19:16 75.4 °F 52 °F 29.9 in NNW 8.3 mph 13.6 mph 44% 0 in 27 W/m2
19:21 74.8 °F 52.7 °F 29.9 in NW 8.3 mph 13.6 mph 46% 0 in 23 W/m2
19:26 74.5 °F 52.3 °F 29.9 in NW 12.1 mph 21.3 mph 46% 0 in 18 W/m2
19:31 74.1 °F 52 °F 29.9 in NNW 9.8 mph 21.3 mph 46% 0 in 13 W/m2
19:36 73.9 °F 52 °F 29.9 in NNW 13.6 mph 21.3 mph 46% 0 in 11 W/m2
19:41 73.8 °F 51.6 °F 29.9 in NW 9.8 mph 19.7 mph 46% 0 in 6 W/m2
19:46 73.6 °F 52.2 °F 29.9 in NW 13 mph 19.7 mph 47% 0 in 4 W/m2
19:51 73.2 °F 51.3 °F 29.9 in NNW 10.7 mph 19 mph 46% 0 in 0 W/m2
19:56 73 °F 51.1 °F 29.9 in NNW 6.9 mph 19 mph 46% 0 in 0 W/m2
20:01 72.9 °F 51.4 °F 29.9 in NW 10.7 mph 19 mph 47% 0 in 0 W/m2
20:06 72.7 °F 51.3 °F 29.9 in NNW 7.6 mph 15.2 mph 47% 0 in 0 W/m2
20:11 72.3 °F 51.6 °F 29.9 in NNW 9.8 mph 15.2 mph 48% 0 in 0 W/m2
20:16 72 °F 51.8 °F 29.9 in North 6.9 mph 14.5 mph 49% 0 in 0 W/m2
20:21 71.6 °F 52 °F 29.9 in North 8.3 mph 15.2 mph 50% 0 in 0 W/m2
20:26 71.6 °F 52.5 °F 29.9 in NNW 6.9 mph 15.2 mph 51% 0 in 0 W/m2
20:31 71.6 °F 52.5 °F 29.9 in NNW 11.4 mph 16.8 mph 51% 0 in 0 W/m2
20:36 71.6 °F 52.5 °F 29.9 in NW 5.4 mph 17.4 mph 51% 0 in 0 W/m2
20:41 71.4 °F 52.9 °F 29.9 in NW 8.3 mph 19 mph 52% 0 in 0 W/m2
20:46 71.4 °F 52.9 °F 29.9 in NW 6 mph 19 mph 52% 0 in 0 W/m2
20:51 71.2 °F 52.7 °F 30 in NNW 9.2 mph 15.9 mph 52% 0 in 0 W/m2
20:56 71.1 °F 52.5 °F 29.9 in NNW 8.3 mph 15.9 mph 52% 0 in 0 W/m2
21:01 71.1 °F 52.5 °F 29.9 in NNW 9.8 mph 15.9 mph 52% 0 in 0 W/m2
21:06 71.1 °F 52.5 °F 29.9 in NNW 12.1 mph 19.7 mph 52% 0 in 0 W/m2
21:11 71.1 °F 52.5 °F 29.9 in NNW 6 mph 19.7 mph 52% 0 in 0 W/m2
21:16 70.7 °F 52.2 °F 29.9 in NNW 7.6 mph 17.4 mph 52% 0 in 0 W/m2
21:21 70.7 °F 52.2 °F 30 in NNW 9.2 mph 18.3 mph 52% 0 in 0 W/m2
21:26 70.5 °F 52.2 °F 30 in NNW 10.7 mph 18.3 mph 52% 0 in 0 W/m2
21:31 70.3 °F 52.3 °F 30 in NNW 6 mph 15.2 mph 53% 0 in 0 W/m2
21:36 70 °F 52.2 °F 30 in NNW 10.7 mph 15.2 mph 53% 0 in 0 W/m2
21:41 69.8 °F 52 °F 30 in NNW 6 mph 13.6 mph 53% 0 in 0 W/m2
21:46 69.6 °F 52.3 °F 30 in NNW 5.4 mph 13.6 mph 54% 0 in 0 W/m2
21:51 69.1 °F 52.3 °F 30 in North 3.8 mph 10.7 mph 55% 0 in 0 W/m2
21:56 68.5 °F 52.2 °F 30 in North 5.4 mph 7.6 mph 56% 0 in 0 W/m2
22:01 68.4 °F 52.5 °F 30 in NNW 4.5 mph 7.6 mph 57% 0 in 0 W/m2
22:06 68 °F 52.7 °F 30 in NNW 3.1 mph 7.6 mph 58% 0 in 0 W/m2
22:11 67.8 °F 53.1 °F 29.9 in North 3.8 mph 9.2 mph 59% 0 in 0 W/m2
22:16 67.5 °F 53.1 °F 29.9 in North 3.1 mph 9.2 mph 60% 0 in 0 W/m2
22:21 67.1 °F 52.9 °F 30 in North 4.5 mph 8.3 mph 60% 0 in 0 W/m2
22:26 67.1 °F 53.2 °F 30 in North 6 mph 9.2 mph 61% 0 in 0 W/m2
22:31 67.1 °F 53.2 °F 29.9 in NNE 5.4 mph 9.2 mph 61% 0 in 0 W/m2
22:36 67.1 °F 53.2 °F 29.9 in NNW 8.3 mph 10.7 mph 61% 0 in 0 W/m2
22:41 67.8 °F 52.5 °F 29.9 in NW 8.3 mph 13.6 mph 58% 0 in 0 W/m2
22:46 68.2 °F 51.4 °F 30 in NW 3.8 mph 13.6 mph 55% 0 in 0 W/m2
22:51 68.5 °F 51.3 °F 29.9 in NNW 6 mph 13.6 mph 54% 0 in 0 W/m2
22:56 68.4 °F 51.1 °F 29.9 in NNW 8.3 mph 13.6 mph 54% 0 in 0 W/m2
23:01 68.2 °F 51.4 °F 30 in NW 6 mph 14.5 mph 55% 0 in 0 W/m2
23:06 68 °F 51.3 °F 30 in NW 3.8 mph 14.5 mph 55% 0 in 0 W/m2
23:11 67.8 °F 52.2 °F 30 in NNW 6 mph 10.7 mph 57% 0 in 0 W/m2
23:16 67.5 °F 51.6 °F 30 in NNW 6 mph 10.7 mph 57% 0 in 0 W/m2
23:21 66.9 °F 51.6 °F 29.9 in NW 6.9 mph 11.4 mph 58% 0 in 0 W/m2
23:26 66.7 °F 51.4 °F 29.9 in NW 3.1 mph 11.4 mph 58% 0 in 0 W/m2
23:31 66.6 °F 51.3 °F 30 in Calm   11.4 mph 58% 0 in 0 W/m2
23:36 66 °F 51.8 °F 30 in WNW 2.2 mph 5.4 mph 60% 0 in 0 W/m2
23:41 65.7 °F 52.3 °F 30 in NW 0.7 mph 6 mph 62% 0 in 0 W/m2
23:46 65.3 °F 52 °F 30 in WNW 1.6 mph 6 mph 62% 0 in 0 W/m2
23:51 64.9 °F 51.6 °F 30 in WNW 3.1 mph 5.4 mph 62% 0 in 0 W/m2
23:56 64.9 °F 51.6 °F 30 in NW 6 mph 10.7 mph 62% 0 in 0 W/m2
Northern Hawkes Bay. New Zealand Historic Data
Compliments of Weather Underground - 2.25 mb